createdAt,value
2022-12-16T00:01:06.339Z,-2.80
2022-12-16T00:04:07.966Z,-5.30
2022-12-16T00:07:10.066Z,-3.20
2022-12-16T00:10:12.041Z,-3.30
2022-12-16T00:13:13.593Z,-3.00
2022-12-16T00:16:17.832Z,-2.30
2022-12-16T00:19:19.407Z,-3.30
2022-12-16T00:22:20.925Z,-3.30
2022-12-16T00:25:22.451Z,-3.40
2022-12-16T00:28:24.767Z,-3.30
2022-12-16T00:31:27.559Z,-3.40
2022-12-16T00:34:29.149Z,-3.40
2022-12-16T00:37:30.661Z,-3.30
2022-12-16T00:40:32.258Z,-2.60
2022-12-16T00:43:34.116Z,-3.20
2022-12-16T00:46:35.934Z,-2.50
2022-12-16T00:49:37.483Z,-1.90
2022-12-16T00:52:39.437Z,-3.00
2022-12-16T00:55:40.965Z,-0.90
2022-12-16T00:58:42.576Z,-3.10
2022-12-16T01:01:44.353Z,-3.00
2022-12-16T01:04:46.035Z,-2.80
2022-12-16T01:07:48.293Z,-3.20
2022-12-16T01:10:51.663Z,-3.20
2022-12-16T01:13:55.175Z,-3.30
2022-12-16T01:16:57.057Z,-3.20
2022-12-16T01:19:58.713Z,-2.50
2022-12-16T01:23:00.651Z,-3.60
2022-12-16T01:26:02.644Z,-3.60
2022-12-16T01:29:04.204Z,-3.50
2022-12-16T01:32:06.383Z,-3.50
2022-12-16T01:35:29.415Z,-3.40
2022-12-16T01:38:30.584Z,-3.30
2022-12-16T01:41:32.114Z,-3.40
2022-12-16T01:44:34.259Z,-3.40
2022-12-16T01:47:35.822Z,-3.40
2022-12-16T01:50:37.495Z,-3.30
2022-12-16T01:53:40.917Z,-3.40
2022-12-16T01:56:51.371Z,-3.30
2022-12-16T01:59:55.277Z,-3.30
2022-12-16T02:02:58.211Z,-3.40
2022-12-16T02:06:01.246Z,-3.30
2022-12-16T02:09:10.269Z,-3.40
2022-12-16T02:12:31.291Z,-3.30
2022-12-16T02:15:58.097Z,-1.30
2022-12-16T02:19:21.183Z,-3.30
2022-12-16T02:23:15.117Z,-3.50
2022-12-16T02:26:52.833Z,-3.50
2022-12-16T02:30:06.418Z,-3.60
2022-12-16T02:33:30.666Z,-3.50
2022-12-16T02:36:51.105Z,-3.60
2022-12-16T02:39:59.443Z,-3.50
2022-12-16T02:43:16.662Z,-3.60
2022-12-16T02:46:21.861Z,-3.60
2022-12-16T02:49:23.407Z,-3.60
2022-12-16T02:52:28.790Z,-3.50
2022-12-16T02:55:43.340Z,-2.70
2022-12-16T02:59:28.254Z,-3.00
2022-12-16T03:02:47.392Z,-3.50
2022-12-16T03:05:52.011Z,-3.40
2022-12-16T03:08:59.546Z,-2.50
2022-12-16T03:12:05.811Z,-3.60
2022-12-16T03:15:08.769Z,-3.50
2022-12-16T03:18:13.241Z,-3.50
2022-12-16T03:21:17.307Z,-3.40
2022-12-16T03:24:19.051Z,-3.40
2022-12-16T03:27:41.696Z,-3.50
2022-12-16T03:30:49.844Z,-3.40
2022-12-16T03:33:59.443Z,-3.40
2022-12-16T03:37:05.146Z,-2.70
2022-12-16T03:40:09.380Z,-3.60
2022-12-16T03:43:14.766Z,-3.60
2022-12-16T03:46:17.358Z,-3.40
2022-12-16T03:49:19.047Z,-3.60
2022-12-16T03:52:20.704Z,-3.90
2022-12-16T03:55:22.257Z,-3.20
2022-12-16T03:58:23.804Z,-4.00
2022-12-16T04:01:25.639Z,-4.00
2022-12-16T04:04:27.448Z,-3.20
2022-12-16T04:07:29.253Z,-2.20
2022-12-16T04:10:49.615Z,-3.80
2022-12-16T04:14:09.895Z,-3.80
2022-12-16T04:17:31.785Z,-3.90
2022-12-16T04:20:55.601Z,-3.80
2022-12-16T04:24:16.454Z,-3.80
2022-12-16T04:27:27.790Z,-4.00
2022-12-16T04:30:34.470Z,-4.00
2022-12-16T04:33:55.088Z,-4.00
2022-12-16T04:37:16.570Z,-3.90
2022-12-16T04:40:37.040Z,-3.40
2022-12-16T04:43:57.253Z,-3.50
2022-12-16T04:47:17.890Z,-3.60
2022-12-16T04:50:38.195Z,-3.70
2022-12-16T04:53:58.434Z,-2.50
2022-12-16T04:57:18.864Z,-2.90
2022-12-16T05:00:39.365Z,-3.90
2022-12-16T05:03:59.791Z,-4.00
2022-12-16T05:07:20.315Z,-3.50
2022-12-16T05:10:40.889Z,-4.00
2022-12-16T05:14:00.866Z,-3.80
2022-12-16T05:17:21.339Z,-3.30
2022-12-16T05:20:41.790Z,-4.30
2022-12-16T05:24:02.231Z,-4.20
2022-12-16T05:27:22.916Z,-4.00
2022-12-16T05:30:42.938Z,-4.20
2022-12-16T05:34:03.156Z,-3.10
2022-12-16T05:37:23.488Z,-3.40
2022-12-16T05:40:43.810Z,-4.30
2022-12-16T05:44:04.267Z,-3.40
2022-12-16T05:47:25.176Z,-4.20
2022-12-16T05:50:45.471Z,-4.00
2022-12-16T05:54:06.014Z,-4.10
2022-12-16T05:57:26.231Z,-4.00
2022-12-16T06:00:46.680Z,-2.90
2022-12-16T06:04:07.172Z,-2.90
2022-12-16T06:07:28.932Z,-3.90
2022-12-16T06:10:49.160Z,-3.70
2022-12-16T06:14:09.426Z,-4.10
2022-12-16T06:17:29.959Z,-4.00
2022-12-16T06:20:50.082Z,-4.00
2022-12-16T06:24:10.439Z,-3.80
2022-12-16T06:27:30.765Z,-3.80
2022-12-16T06:30:51.139Z,-2.80
2022-12-16T06:34:11.467Z,-3.00
2022-12-16T06:37:31.901Z,-2.80
2022-12-16T06:40:52.510Z,-3.50
2022-12-16T06:44:15.340Z,-3.80
2022-12-16T06:47:35.915Z,-3.60
2022-12-16T06:50:56.358Z,-3.60
2022-12-16T06:54:16.921Z,-3.10
2022-12-16T06:57:53.665Z,-3.20
2022-12-16T07:01:14.053Z,-3.50
2022-12-16T07:04:34.387Z,-2.50
2022-12-16T07:07:54.792Z,-3.40
2022-12-16T07:11:17.068Z,-3.30
2022-12-16T07:14:37.568Z,-3.10
2022-12-16T07:18:00.421Z,-3.50
2022-12-16T07:21:20.834Z,-2.90
2022-12-16T07:24:41.219Z,-2.90
2022-12-16T07:28:05.150Z,-2.60
2022-12-16T07:31:26.323Z,-2.60
2022-12-16T07:34:50.135Z,-3.70
2022-12-16T07:38:10.971Z,-3.70
2022-12-16T07:41:31.298Z,-3.70
2022-12-16T07:44:51.650Z,-3.60
2022-12-16T07:48:11.991Z,-3.70
2022-12-16T07:51:32.510Z,-2.90
2022-12-16T07:54:52.685Z,-3.60
2022-12-16T07:58:12.939Z,-3.60
2022-12-16T08:01:33.555Z,-3.50
2022-12-16T08:04:53.945Z,-3.60
2022-12-16T08:08:15.967Z,-3.40
2022-12-16T08:11:36.204Z,-2.70
2022-12-16T08:14:56.632Z,-3.30
2022-12-16T08:18:17.030Z,-3.20
2022-12-16T08:21:37.628Z,-3.00
2022-12-16T08:24:57.858Z,-2.90
2022-12-16T08:28:18.335Z,-2.80
2022-12-16T08:31:38.552Z,-2.60
2022-12-16T08:34:58.896Z,-2.40
2022-12-16T08:38:19.235Z,-2.50
2022-12-16T08:41:39.617Z,-1.90
2022-12-16T08:44:59.803Z,-2.30
2022-12-16T08:48:19.913Z,-2.10
2022-12-16T08:51:40.016Z,-1.90
2022-12-16T08:55:00.435Z,-1.80
2022-12-16T08:58:20.938Z,-1.70
2022-12-16T09:01:41.622Z,-0.70
2022-12-16T09:05:01.897Z,-1.60
2022-12-16T09:08:23.331Z,-1.50
2022-12-16T09:11:43.650Z,-1.40
2022-12-16T09:15:04.262Z,-1.50
2022-12-16T09:18:24.417Z,-1.30
2022-12-16T09:21:45.063Z,-1.20
2022-12-16T09:25:05.036Z,-1.10
2022-12-16T09:28:25.391Z,-0.70
2022-12-16T09:31:45.663Z,0.00
2022-12-16T09:35:11.619Z,-0.40
2022-12-16T09:38:33.988Z,-0.70
2022-12-16T09:42:02.668Z,-0.50
2022-12-16T09:45:36.280Z,-0.40
2022-12-16T09:49:30.391Z,-0.20
2022-12-16T09:53:03.081Z,-0.10
2022-12-16T09:56:35.690Z,0.70
2022-12-16T09:59:59.776Z,0.00
2022-12-16T10:03:32.192Z,0.10
2022-12-16T10:07:07.908Z,0.10
2022-12-16T10:11:02.855Z,0.30
2022-12-16T10:14:41.765Z,0.30
2022-12-16T10:18:04.713Z,0.60
2022-12-16T10:21:27.174Z,0.60
2022-12-16T10:25:04.304Z,0.70
2022-12-16T10:28:35.122Z,0.70
2022-12-16T10:31:55.209Z,0.60
2022-12-16T10:35:16.047Z,1.10
2022-12-16T10:38:47.407Z,1.00
2022-12-16T10:42:11.856Z,1.10
2022-12-16T10:45:50.352Z,1.10
2022-12-16T10:49:10.522Z,1.20
2022-12-16T10:52:31.452Z,1.30
2022-12-16T10:56:31.929Z,1.30
2022-12-16T10:59:57.584Z,1.30
2022-12-16T11:03:38.628Z,1.40
2022-12-16T11:07:00.606Z,1.30
2022-12-16T11:10:48.146Z,1.50
2022-12-16T11:14:08.477Z,1.60
2022-12-16T11:17:42.139Z,1.40
2022-12-16T11:21:07.030Z,1.80
2022-12-16T11:24:33.226Z,1.50
2022-12-16T11:27:53.455Z,1.50
2022-12-16T11:31:17.438Z,1.50
2022-12-16T11:34:37.895Z,1.50
2022-12-16T11:38:00.439Z,1.60
2022-12-16T11:41:22.020Z,1.40
2022-12-16T11:44:50.483Z,1.60
2022-12-16T11:48:35.047Z,1.60
2022-12-16T11:52:20.834Z,1.80
2022-12-16T11:56:07.621Z,1.50
2022-12-16T11:59:42.467Z,1.60
2022-12-16T12:03:32.068Z,1.60
2022-12-16T12:07:30.734Z,1.60
2022-12-16T12:11:15.591Z,1.60
2022-12-16T12:14:53.575Z,1.70
2022-12-16T12:18:56.489Z,1.60
2022-12-16T12:22:49.761Z,1.60
2022-12-16T12:26:38.003Z,1.70
2022-12-16T12:30:18.900Z,1.60
2022-12-16T12:34:24.062Z,2.00
2022-12-16T12:37:44.348Z,1.70
2022-12-16T12:41:13.500Z,1.60
2022-12-16T12:45:01.218Z,1.60
2022-12-16T12:48:41.004Z,1.70
2022-12-16T12:52:15.502Z,1.70
2022-12-16T12:55:40.553Z,1.70
2022-12-16T12:59:01.551Z,1.60
2022-12-16T13:02:24.009Z,1.60
2022-12-16T13:05:47.230Z,1.60
2022-12-16T13:09:07.564Z,1.60
2022-12-16T13:12:27.905Z,1.60
2022-12-16T13:15:56.184Z,1.70
2022-12-16T13:19:48.886Z,1.70
2022-12-16T13:23:09.390Z,1.60
2022-12-16T13:26:30.114Z,1.60
2022-12-16T13:29:51.191Z,1.60
2022-12-16T13:33:15.213Z,1.70
2022-12-16T13:36:37.291Z,1.70
2022-12-16T13:39:59.354Z,1.60
2022-12-16T13:43:23.651Z,1.40
2022-12-16T13:46:58.521Z,1.60
2022-12-16T13:50:38.529Z,1.50
2022-12-16T13:54:05.121Z,1.50
2022-12-16T13:57:30.266Z,1.50
2022-12-16T14:00:56.930Z,1.40
2022-12-16T14:04:19.103Z,1.60
2022-12-16T14:07:42.809Z,1.30
2022-12-16T14:11:03.423Z,1.30
2022-12-16T14:14:37.802Z,1.10
2022-12-16T14:18:07.419Z,1.20
2022-12-16T14:21:32.335Z,1.60
2022-12-16T14:24:53.323Z,1.20
2022-12-16T14:28:13.702Z,1.30
2022-12-16T14:31:53.282Z,-0.40
2022-12-16T14:35:20.568Z,1.20
2022-12-16T14:38:45.589Z,1.20
2022-12-16T14:42:09.437Z,1.00
2022-12-16T14:45:50.091Z,1.00
2022-12-16T14:49:10.439Z,0.90
2022-12-16T14:52:42.209Z,0.80
2022-12-16T14:56:02.502Z,0.80
2022-12-16T14:59:32.782Z,0.70
2022-12-16T15:02:59.275Z,0.70
2022-12-16T15:06:23.404Z,1.10
2022-12-16T15:09:52.183Z,0.90
2022-12-16T15:13:12.559Z,1.00
2022-12-16T15:16:41.856Z,1.10
2022-12-16T15:20:08.091Z,1.00
2022-12-16T15:23:52.455Z,1.10
2022-12-16T15:27:38.051Z,0.90
2022-12-16T15:30:59.507Z,-0.40
2022-12-16T15:34:38.568Z,0.80
2022-12-16T15:38:04.481Z,0.70
2022-12-16T15:41:25.471Z,0.70
2022-12-16T15:44:46.477Z,0.70
2022-12-16T15:48:09.545Z,0.60
2022-12-16T15:51:41.527Z,0.50
2022-12-16T15:55:12.952Z,0.60
2022-12-16T15:58:45.638Z,0.70
2022-12-16T16:02:06.280Z,0.60
2022-12-16T16:05:37.878Z,1.00
2022-12-16T16:08:57.995Z,0.50
2022-12-16T16:12:18.122Z,0.80
2022-12-16T16:15:38.463Z,0.70
2022-12-16T16:19:00.461Z,0.50
2022-12-16T16:22:20.969Z,0.30
2022-12-16T16:25:41.356Z,0.20
2022-12-16T16:29:01.775Z,0.20
2022-12-16T16:32:22.234Z,1.30
2022-12-16T16:35:42.602Z,0.10
2022-12-16T16:39:02.996Z,0.00
2022-12-16T16:42:23.470Z,0.10
2022-12-16T16:45:43.908Z,1.70
2022-12-16T16:49:04.217Z,0.00
2022-12-16T16:52:28.834Z,-0.10
2022-12-16T16:55:49.688Z,0.00
2022-12-16T16:59:10.106Z,0.80
2022-12-16T17:02:40.775Z,-0.10
2022-12-16T17:06:01.903Z,-0.10
2022-12-16T17:09:22.196Z,0.10
2022-12-16T17:12:44.954Z,0.10
2022-12-16T17:16:05.366Z,0.00
2022-12-16T17:19:25.933Z,0.10
2022-12-16T17:22:46.387Z,0.40
2022-12-16T17:26:08.432Z,0.10
2022-12-16T17:29:43.143Z,0.10
2022-12-16T17:33:03.205Z,0.60
2022-12-16T17:36:26.129Z,0.10
2022-12-16T17:39:50.333Z,0.20
2022-12-16T17:43:10.825Z,0.40
2022-12-16T17:46:31.176Z,0.50
2022-12-16T17:49:51.631Z,1.00
2022-12-16T17:53:16.648Z,1.10
2022-12-16T17:56:37.211Z,1.00
2022-12-16T17:59:59.608Z,0.90
2022-12-16T18:03:20.333Z,1.00
2022-12-16T18:06:40.726Z,1.10
2022-12-16T18:10:01.059Z,1.10
2022-12-16T18:13:21.526Z,1.20
2022-12-16T18:16:42.395Z,1.40
2022-12-16T18:20:03.449Z,1.00
2022-12-16T18:23:23.919Z,0.70
2022-12-16T18:26:44.361Z,0.80
2022-12-16T18:30:04.822Z,0.70
2022-12-16T18:33:25.185Z,1.00
2022-12-16T18:36:45.715Z,0.70
2022-12-16T18:40:06.059Z,0.60
2022-12-16T18:43:26.546Z,0.70
2022-12-16T18:46:46.958Z,0.70
2022-12-16T18:50:07.380Z,0.60
2022-12-16T18:53:27.828Z,0.70
2022-12-16T18:56:49.856Z,0.90
2022-12-16T19:00:10.238Z,0.70
2022-12-16T19:03:32.832Z,0.60
2022-12-16T19:06:53.163Z,0.70
2022-12-16T19:10:13.748Z,0.70
2022-12-16T19:13:34.071Z,0.70
2022-12-16T19:16:54.484Z,1.50
2022-12-16T19:20:15.011Z,0.70
2022-12-16T19:23:36.011Z,0.50
2022-12-16T19:26:56.841Z,0.50
2022-12-16T19:30:17.493Z,0.60
2022-12-16T19:33:37.596Z,0.80
2022-12-16T19:36:58.462Z,0.50
2022-12-16T19:40:19.331Z,1.20
2022-12-16T19:43:39.735Z,0.50
2022-12-16T19:47:00.212Z,0.40
2022-12-16T19:50:20.737Z,2.20
2022-12-16T19:53:41.550Z,0.30
2022-12-16T19:57:02.220Z,0.30
2022-12-16T20:00:24.309Z,0.10
2022-12-16T20:03:45.434Z,0.30
2022-12-16T20:07:06.184Z,0.20
2022-12-16T20:10:26.680Z,0.10
2022-12-16T20:13:47.059Z,0.00
2022-12-16T20:17:07.307Z,0.00
2022-12-16T20:20:27.750Z,0.00
2022-12-16T20:23:48.594Z,0.00
2022-12-16T20:27:09.024Z,0.10
2022-12-16T20:30:30.209Z,0.30
2022-12-16T20:33:50.491Z,0.20
2022-12-16T20:37:12.256Z,2.30
2022-12-16T20:40:32.836Z,1.80
2022-12-16T20:43:53.201Z,0.00
2022-12-16T20:47:16.705Z,0.30
2022-12-16T20:50:37.219Z,1.20
2022-12-16T20:53:57.630Z,0.00
2022-12-16T20:57:18.147Z,0.00
2022-12-16T21:00:38.744Z,1.10
2022-12-16T21:03:59.304Z,0.10
2022-12-16T21:07:19.654Z,-0.10
2022-12-16T21:10:39.992Z,0.00
2022-12-16T21:14:00.418Z,0.00
2022-12-16T21:17:22.975Z,1.00
2022-12-16T21:20:43.616Z,0.20
2022-12-16T21:24:05.243Z,-0.10
2022-12-16T21:27:25.726Z,-0.20
2022-12-16T21:30:48.198Z,0.20
2022-12-16T21:34:08.595Z,0.00
2022-12-16T21:37:29.682Z,0.00
2022-12-16T21:40:50.083Z,-0.10
2022-12-16T21:44:10.586Z,-0.10
2022-12-16T21:47:31.161Z,0.00
2022-12-16T21:54:28.224Z,0.70
2022-12-16T21:57:48.771Z,-0.20
2022-12-16T22:01:13.829Z,0.10
2022-12-16T22:04:34.295Z,0.00
2022-12-16T22:07:57.388Z,0.10
2022-12-16T22:11:19.231Z,-0.20
2022-12-16T22:14:47.251Z,1.60
2022-12-16T22:18:10.280Z,-0.50
2022-12-16T22:21:32.902Z,1.00
2022-12-16T22:25:02.047Z,0.80
2022-12-16T22:28:25.487Z,2.10
2022-12-16T22:31:49.533Z,1.30
2022-12-16T22:35:14.419Z,1.10
2022-12-16T22:38:34.893Z,0.80
2022-12-16T22:41:56.070Z,2.50
2022-12-16T22:45:16.710Z,2.00
2022-12-16T22:48:51.680Z,1.20
2022-12-16T22:52:13.170Z,1.40
2022-12-16T22:55:39.180Z,0.60
2022-12-16T23:02:41.589Z,0.10
2022-12-16T23:06:02.057Z,0.60
2022-12-16T23:09:25.495Z,1.90
2022-12-16T23:12:52.827Z,0.30
2022-12-16T23:16:17.173Z,2.10
2022-12-16T23:19:37.421Z,0.40
2022-12-16T23:22:57.741Z,0.00
2022-12-16T23:26:23.690Z,0.00
2022-12-16T23:29:44.142Z,-0.30
2022-12-16T23:33:04.691Z,0.00
2022-12-16T23:36:25.089Z,0.10
2022-12-16T23:39:45.619Z,0.20
2022-12-16T23:43:05.999Z,0.00
2022-12-16T23:46:26.335Z,0.10
2022-12-16T23:49:46.756Z,0.00
2022-12-16T23:53:07.228Z,-0.10
2022-12-16T23:56:27.713Z,-0.10
2022-12-16T23:59:48.241Z,0.00
